Purcell, OK

5:48 AM CDT on September 20, 2014 (GMT -0500)
Tinker Air Force Base | Change Station
CLOSE
Current Station
Airport
Location: Tinker AFB,
Elevation: 1293 ft
Nearby Weather Stations
4.0 Earthquake: Medford, Oklahoma (1 day ago)  

Elev 1293 ft 35.41 °N, 97.39 °W | Updated 50 minutes ago

Partly Cloudy
Partly Cloudy
69 °F
Feels Like 69 °F
N
10
Wind Variable Wind from South

Today
High -- | Low -- °F
--% Chance of Precip.
Yesterday
High -- | Low -- °F
Precip. -- in
7:16 AM 7:29 PM
Waning Crescent, 13% visible
Pressure 29.97 in
Visibility 10.0 miles
Clouds Clear
Dew Point 67 °F
Humidity 95%
Rainfall 0.00 in
Snow Depth Not available.
UV 0 out of 12
Pollen 10.40 out of 12
Ozone Good
PM2.5 Moderate
Flu Activity Not available.
METAR KTIK 200958Z AUTO 18009KT 10SM CLR 21/20 A2999 RMK AO2 SLP149 T02050196 $

More Conditions Fewer Conditions

Pressure 29.97 in
Visibility 10.0 miles
Clouds Clear
Dew Point 67 °F
Humidity 95%
Rainfall 0.00 in
Snow Depth Not available.
UV 0 out of 12
Pollen 10.40 out of 12
Ozone Good
PM2.5 Moderate
Flu Activity Not available.
METAR KTIK 200958Z AUTO 18009KT 10SM CLR 21/20 A2999 RMK AO2 SLP149 T02050196 $

More Conditions Fewer Conditions

10-Day Weather Forecast

Almanac

Astronomy

Sep. 20, 2014 Rise Set
Actual Time 7:16 AM CDT 7:29 PM CDT
Civil Twilight 6:50 AM CDT 7:54 PM CDT
Nautical Twilight 6:21 AM CDT 8:23 PM CDT
Astronomical Twilight 5:51 AM CDT 8:53 PM CDT
Moon 4:02 AM CDT 5:28 PM CDT
Length of Visible Light 13h 03m
Length of Day
12h 13m
Tomorrow will be 2m 10s shorter.
Waning Crescent, 13% of the Moon is Illuminated
Today
Waning Crescent
Sep 24
New
Oct 1
First Quarter
Oct 8
Full
Oct 15
Last Quarter

Today's Extremes

State Highs State Lows

Community

WunderPhotos

Upload Photos

1,754,827 photos uploaded!

Nearby

Air Quality

  Air Quality AQ Index Pollutant
Yesterday Good
PM2.5
Yesterday Good
OZONE
Current Moderate
PM2.5
Current Good
OZONE
Saturday Moderate
PM2.5
Saturday Good
OZONE
Sunday Good
PM2.5
Sunday Good
OZONE
Monday Good
OZONE
Monday Good
PM2.5
Tuesday Good
OZONE
Tuesday Good
PM2.5
Wednesday Good
OZONE
Wednesday Good
PM2.5

Snow Depth

Station Depth Elevation
No new snow has been reported.

Earthquake Activity

City Distance Mag. Time & Date
Medford, Oklahoma 126 miles 3.2 2:10 AM CDT
2014-09-20
Luther, Oklahoma 47 miles 2.7 4:47 PM CDT
2014-09-19
Guthrie, Oklahoma 55 miles 3.9 12:23 PM CDT
2014-09-19
Jones, Oklahoma 38 miles 2.8 1:13 AM CDT
2014-09-19
Minimum magnitude displayed is 2.5.

Coastal Water Temperatures

Place Temperature
No Stations Reporting

Nearby Weather Stations